createdAt,value
2019-02-15T00:02:17.410Z,100959.20
2019-02-15T00:04:48.571Z,100964.44
2019-02-15T00:07:19.117Z,100962.70
2019-02-15T00:09:48.867Z,100954.43
2019-02-15T00:12:18.329Z,100954.42
2019-02-15T00:14:48.926Z,100952.69
2019-02-15T00:17:37.931Z,100952.23
2019-02-15T00:20:12.954Z,100958.77
2019-02-15T00:22:43.229Z,100960.07
2019-02-15T00:25:13.113Z,100954.85
2019-02-15T00:27:47.008Z,100960.08
2019-02-15T00:30:16.315Z,100954.41
2019-02-15T00:32:45.496Z,100950.48
2019-02-15T00:35:14.718Z,100958.77
2019-02-15T00:37:44.712Z,100950.08
2019-02-15T00:40:13.929Z,100950.48
2019-02-15T00:42:44.055Z,100953.55
2019-02-15T00:45:14.725Z,100951.79
2019-02-15T00:48:07.378Z,100949.63
2019-02-15T00:50:46.111Z,100950.91
2019-02-15T00:53:24.743Z,100951.78
2019-02-15T00:56:08.909Z,100957.45
2019-02-15T00:59:03.745Z,100953.48
2019-02-15T01:01:43.498Z,100954.77
2019-02-15T01:04:51.229Z,100958.28
2019-02-15T01:07:58.714Z,100957.87
2019-02-15T01:10:52.670Z,100955.70
2019-02-15T01:13:30.906Z,100950.03
2019-02-15T01:15:58.503Z,100953.92
2019-02-15T01:18:29.884Z,100952.20
2019-02-15T01:20:59.381Z,100943.45
2019-02-15T01:23:29.110Z,100939.98
2019-02-15T01:26:24.084Z,100940.41
2019-02-15T01:29:23.162Z,100939.13
2019-02-15T01:32:29.323Z,100943.05
2019-02-15T01:35:33.314Z,100933.45
2019-02-15T01:38:11.544Z,100936.48
2019-02-15T01:41:09.772Z,100935.17
2019-02-15T01:43:58.051Z,100940.41
2019-02-15T01:46:40.041Z,100933.89
2019-02-15T01:49:10.792Z,100933.86
2019-02-15T01:51:40.540Z,100933.89
2019-02-15T01:54:10.030Z,100930.84
2019-02-15T01:56:41.378Z,100925.63
2019-02-15T01:59:10.867Z,100923.89
2019-02-15T02:01:41.828Z,100917.33
2019-02-15T02:04:12.037Z,100917.34
2019-02-15T02:06:41.918Z,100909.51
2019-02-15T02:09:11.697Z,100903.80
2019-02-15T02:11:42.154Z,100902.50
2019-02-15T02:14:12.097Z,100897.69
2019-02-15T02:16:41.834Z,100894.17
2019-02-15T02:19:10.991Z,100894.53
2019-02-15T02:21:41.786Z,100895.39
2019-02-15T02:24:13.950Z,100890.14
2019-02-15T02:26:45.009Z,100887.53
2019-02-15T02:29:14.483Z,100886.23
2019-02-15T02:31:43.680Z,100877.94
2019-02-15T02:34:13.722Z,100873.16
2019-02-15T02:36:58.345Z,100879.28
2019-02-15T02:39:30.531Z,100879.28
2019-02-15T02:42:00.310Z,100875.32
2019-02-15T02:44:30.530Z,100871.84
2019-02-15T02:47:00.958Z,100868.37
2019-02-15T02:49:33.324Z,100870.16
2019-02-15T02:52:05.674Z,100873.23
2019-02-15T02:54:35.761Z,100874.54
2019-02-15T02:57:05.536Z,100863.28
2019-02-15T02:59:36.136Z,100867.63
2019-02-15T03:02:05.617Z,100866.29
2019-02-15T03:04:34.855Z,100865.89
2019-02-15T03:07:04.631Z,100867.16
2019-02-15T03:09:36.094Z,100860.64
2019-02-15T03:12:05.797Z,100862.81
2019-02-15T03:14:36.453Z,100858.90
2019-02-15T03:17:06.032Z,100859.30
2019-02-15T03:19:38.684Z,100863.20
2019-02-15T03:22:10.492Z,100859.77
2019-02-15T03:24:39.961Z,100861.47
2019-02-15T03:27:12.265Z,100863.20
2019-02-15T03:29:46.188Z,100859.73
2019-02-15T03:32:16.025Z,100861.90
2019-02-15T03:34:48.005Z,100857.13
2019-02-15T03:37:39.996Z,100866.68
2019-02-15T03:40:21.360Z,100862.34
2019-02-15T03:42:50.528Z,100865.38
2019-02-15T03:45:22.042Z,100863.64
2019-02-15T03:47:54.809Z,100863.64
2019-02-15T03:50:25.173Z,100863.59
2019-02-15T03:52:59.933Z,100867.94
2019-02-15T03:55:29.530Z,100870.55
2019-02-15T03:58:02.432Z,100868.80
2019-02-15T04:00:32.420Z,100867.08
2019-02-15T04:03:05.096Z,100870.98
2019-02-15T04:05:34.960Z,100870.06
2019-02-15T04:08:04.452Z,100869.68
2019-02-15T04:10:34.465Z,100867.50
2019-02-15T04:13:04.206Z,100877.49
2019-02-15T04:15:33.797Z,100871.31
2019-02-15T04:18:02.973Z,100874.41
2019-02-15T04:20:33.281Z,100874.40
2019-02-15T04:23:03.274Z,100873.92
2019-02-15T04:25:32.769Z,100875.67
2019-02-15T04:28:02.222Z,100875.71
2019-02-15T04:30:32.651Z,100876.14
2019-02-15T04:33:01.850Z,100875.27
2019-02-15T04:35:32.602Z,100881.36
2019-02-15T04:38:04.117Z,100879.19
2019-02-15T04:40:34.152Z,100877.45
2019-02-15T04:43:05.764Z,100875.28
2019-02-15T04:45:34.956Z,100883.09
2019-02-15T04:48:04.538Z,100888.30
2019-02-15T04:50:34.008Z,100885.70
2019-02-15T04:53:04.255Z,100886.12
2019-02-15T04:55:34.511Z,100885.64
2019-02-15T04:58:04.088Z,100884.78
2019-02-15T05:00:33.807Z,100882.16
2019-02-15T05:03:03.811Z,100880.38
2019-02-15T05:05:33.296Z,100882.13
2019-02-15T05:08:02.547Z,100884.30
2019-02-15T05:10:35.407Z,100875.59
2019-02-15T05:13:05.117Z,100880.75
2019-02-15T05:15:34.587Z,100883.78
2019-02-15T05:18:04.369Z,100877.70
2019-02-15T05:20:38.975Z,100882.87
2019-02-15T05:23:11.558Z,100880.70
2019-02-15T05:25:43.262Z,100884.17
2019-02-15T05:28:13.144Z,100880.31
2019-02-15T05:30:47.201Z,100884.59
2019-02-15T05:33:17.267Z,100886.33
2019-02-15T05:35:48.503Z,100879.81
2019-02-15T05:38:21.329Z,100875.91
2019-02-15T05:40:53.089Z,100875.44
2019-02-15T05:43:25.565Z,100878.89
2019-02-15T05:45:57.439Z,100876.34
2019-02-15T05:48:28.090Z,100876.73
2019-02-15T05:50:57.854Z,100878.46
2019-02-15T05:53:28.072Z,100876.72
2019-02-15T05:56:00.850Z,100884.55
2019-02-15T05:58:34.832Z,100879.80
2019-02-15T06:01:03.927Z,100884.59
2019-02-15T06:03:33.899Z,100882.37
2019-02-15T06:06:03.600Z,100887.50
2019-02-15T06:08:34.065Z,100891.84
2019-02-15T06:11:07.959Z,100893.56
2019-02-15T06:13:39.897Z,100894.00
2019-02-15T06:16:10.753Z,100897.03
2019-02-15T06:18:42.033Z,100892.25
2019-02-15T06:21:11.249Z,100889.23
2019-02-15T06:23:40.725Z,100894.00
2019-02-15T06:26:12.166Z,100895.30
2019-02-15T06:28:41.616Z,100897.47
2019-02-15T06:31:11.615Z,100899.64
2019-02-15T06:33:43.212Z,100910.49
2019-02-15T06:36:12.945Z,100908.75
2019-02-15T06:38:47.099Z,100912.59
2019-02-15T06:41:17.334Z,100913.02
2019-02-15T06:43:47.037Z,100911.64
2019-02-15T06:46:21.475Z,100917.78
2019-02-15T06:48:52.428Z,100916.42
2019-02-15T06:51:28.005Z,100915.08
2019-02-15T06:53:57.593Z,100915.88
2019-02-15T06:56:27.058Z,100919.18
2019-02-15T06:59:19.385Z,100925.30
2019-02-15T07:02:23.350Z,100918.80
2019-02-15T07:05:14.251Z,100917.94
2019-02-15T07:07:44.253Z,100919.28
2019-02-15T07:10:14.095Z,100918.30
2019-02-15T07:12:45.375Z,100915.78
2019-02-15T07:15:20.783Z,100917.00
2019-02-15T07:17:51.078Z,100916.92
2019-02-15T07:20:20.549Z,100915.28
2019-02-15T07:22:52.614Z,100912.75
2019-02-15T07:25:22.373Z,100914.94
2019-02-15T07:27:51.575Z,100915.89
2019-02-15T07:30:21.262Z,100922.02
2019-02-15T07:32:52.719Z,100916.48
2019-02-15T07:35:23.378Z,100920.84
2019-02-15T07:37:54.107Z,100919.67
2019-02-15T07:40:29.005Z,100915.86
2019-02-15T07:42:59.152Z,100919.41
2019-02-15T07:45:29.177Z,100919.90
2019-02-15T07:47:59.422Z,100921.27
2019-02-15T07:50:28.878Z,100923.05
2019-02-15T07:52:59.140Z,100918.72
2019-02-15T07:55:28.617Z,100917.91
2019-02-15T07:58:03.893Z,100921.32
2019-02-15T08:00:36.273Z,100921.31
2019-02-15T08:03:06.061Z,100919.56
2019-02-15T08:05:40.698Z,100917.83
2019-02-15T08:08:14.644Z,100922.25
2019-02-15T08:10:45.239Z,100921.04
2019-02-15T08:13:15.791Z,100923.73
2019-02-15T08:15:51.758Z,100924.64
2019-02-15T08:18:19.433Z,100918.59
2019-02-15T08:20:49.903Z,100924.23
2019-02-15T08:23:25.480Z,100919.02
2019-02-15T08:25:54.732Z,100919.02
2019-02-15T08:28:23.982Z,100914.70
2019-02-15T08:30:54.027Z,100918.64
2019-02-15T08:33:23.316Z,100910.39
2019-02-15T08:35:52.828Z,100915.66
2019-02-15T08:38:24.887Z,100913.06
2019-02-15T08:40:54.048Z,100919.14
2019-02-15T08:43:23.257Z,100906.95
2019-02-15T08:46:00.529Z,100913.89
2019-02-15T08:48:24.149Z,100908.22
2019-02-15T08:50:53.408Z,100911.25
2019-02-15T08:53:23.794Z,100909.92
2019-02-15T08:55:57.938Z,100912.08
2019-02-15T08:58:28.232Z,100907.70
2019-02-15T09:00:58.278Z,100905.42
2019-02-15T09:03:28.131Z,100906.66
2019-02-15T09:05:57.700Z,100903.50
2019-02-15T09:08:30.061Z,100897.28
2019-02-15T09:11:02.792Z,100900.68
2019-02-15T09:13:32.030Z,100895.77
2019-02-15T09:16:09.804Z,100890.42
2019-02-15T09:18:32.436Z,100888.50
2019-02-15T09:21:01.849Z,100890.49
2019-02-15T09:23:31.085Z,100885.06
2019-02-15T09:26:01.155Z,100884.30
2019-02-15T09:28:49.844Z,100884.96
2019-02-15T09:31:19.369Z,100879.41
2019-02-15T09:33:48.921Z,100880.17
2019-02-15T09:36:18.936Z,100872.74
2019-02-15T09:38:48.150Z,100872.11
2019-02-15T09:41:17.318Z,100865.16
2019-02-15T09:43:46.510Z,100865.31
2019-02-15T09:46:19.963Z,100864.34
2019-02-15T09:48:48.380Z,100860.32
2019-02-15T09:51:18.767Z,100865.63
2019-02-15T09:53:48.354Z,100856.78
2019-02-15T09:56:18.353Z,100857.65
2019-02-15T09:58:47.663Z,100854.08
2019-02-15T10:01:17.741Z,100847.67
2019-02-15T10:03:47.295Z,100845.38
2019-02-15T10:06:17.227Z,100842.56
2019-02-15T10:08:46.539Z,100836.78
2019-02-15T10:11:16.299Z,100837.25
2019-02-15T10:13:45.518Z,100836.83
2019-02-15T10:16:16.062Z,100831.78
2019-02-15T10:18:45.331Z,100828.55
2019-02-15T10:21:14.699Z,100824.44
2019-02-15T10:23:43.974Z,100820.92
2019-02-15T10:26:13.814Z,100823.14
2019-02-15T10:28:48.728Z,100827.74
2019-02-15T10:31:17.924Z,100819.16
2019-02-15T10:33:48.863Z,100814.73
2019-02-15T10:36:19.168Z,100810.33
2019-02-15T10:38:48.415Z,100810.59
2019-02-15T10:41:17.651Z,100807.06
2019-02-15T10:43:47.215Z,100804.83
2019-02-15T10:46:16.436Z,100795.98
2019-02-15T10:48:45.621Z,100792.16
2019-02-15T10:51:15.018Z,100790.70
2019-02-15T10:54:00.391Z,100788.67
2019-02-15T10:56:29.659Z,100784.11
2019-02-15T10:58:58.964Z,100776.75
2019-02-15T11:01:31.131Z,100775.97
2019-02-15T11:04:00.432Z,100767.61
2019-02-15T11:06:29.617Z,100767.74
2019-02-15T11:09:00.457Z,100769.16
2019-02-15T11:11:29.738Z,100764.93
2019-02-15T11:13:59.015Z,100759.47
2019-02-15T11:16:28.574Z,100750.53
2019-02-15T11:18:57.917Z,100750.15
2019-02-15T11:21:27.928Z,100750.62
2019-02-15T11:23:57.126Z,100756.23
2019-02-15T11:26:26.504Z,100749.41
2019-02-15T11:28:56.054Z,100744.67
2019-02-15T11:31:25.211Z,100743.56
2019-02-15T11:33:54.742Z,100738.16
2019-02-15T11:36:23.905Z,100735.94
2019-02-15T11:38:53.791Z,100734.31
2019-02-15T11:41:22.975Z,100730.64
2019-02-15T11:43:53.650Z,100723.75
2019-02-15T11:46:22.812Z,100725.80
2019-02-15T11:48:53.594Z,100720.44
2019-02-15T11:51:23.098Z,100711.86
2019-02-15T11:53:52.602Z,100709.39
2019-02-15T11:56:23.003Z,100706.38
2019-02-15T11:58:54.793Z,100719.34
2019-02-15T12:01:26.275Z,100708.23
2019-02-15T12:03:59.635Z,100702.59
2019-02-15T12:06:29.934Z,100702.42
2019-02-15T12:08:59.502Z,100699.08
2019-02-15T12:11:31.827Z,100703.47
2019-02-15T12:14:05.220Z,100697.57
2019-02-15T12:16:34.659Z,100695.47
2019-02-15T12:19:06.977Z,100697.66
2019-02-15T12:21:36.724Z,100698.71
2019-02-15T12:24:11.911Z,100690.64
2019-02-15T12:26:43.138Z,100689.17
2019-02-15T12:29:18.280Z,100695.58
2019-02-15T12:31:48.061Z,100688.45
2019-02-15T12:34:18.110Z,100689.68
2019-02-15T12:36:48.649Z,100679.53
2019-02-15T12:39:20.761Z,100686.00
2019-02-15T12:41:50.012Z,100673.34
2019-02-15T12:44:22.328Z,100673.07
2019-02-15T12:46:55.774Z,100672.48
2019-02-15T12:49:25.570Z,100660.06
2019-02-15T12:51:57.916Z,100659.64
2019-02-15T12:54:29.057Z,100652.86
2019-02-15T12:56:59.126Z,100651.41
2019-02-15T12:59:29.367Z,100648.54
2019-02-15T13:01:58.702Z,100646.77
2019-02-15T13:04:29.064Z,100639.72
2019-02-15T13:06:58.801Z,100637.88
2019-02-15T13:09:32.716Z,100631.76
2019-02-15T13:12:04.206Z,100638.97
2019-02-15T13:14:33.972Z,100623.33
2019-02-15T13:17:03.573Z,100623.86
2019-02-15T13:19:33.137Z,100619.11
2019-02-15T13:22:05.411Z,100616.66
2019-02-15T13:24:36.858Z,100611.73
2019-02-15T13:27:08.643Z,100609.68
2019-02-15T13:29:38.207Z,100604.23
2019-02-15T13:32:10.234Z,100597.63
2019-02-15T13:34:40.202Z,100594.14
2019-02-15T13:37:09.814Z,100592.99
2019-02-15T13:39:40.825Z,100587.62
2019-02-15T13:42:10.581Z,100586.44
2019-02-15T13:44:42.605Z,100585.42
2019-02-15T13:47:16.067Z,100581.08
2019-02-15T13:49:45.613Z,100583.53
2019-02-15T13:52:18.470Z,100581.55
2019-02-15T13:54:48.944Z,100581.08
2019-02-15T13:57:20.049Z,100567.70
2019-02-15T13:59:50.856Z,100573.84
2019-02-15T14:02:22.876Z,100567.84
2019-02-15T14:04:52.879Z,100564.79
2019-02-15T14:07:24.333Z,100557.45
2019-02-15T14:09:54.113Z,100557.80
2019-02-15T14:12:26.814Z,100552.50
2019-02-15T14:14:57.659Z,100544.08
2019-02-15T14:17:27.415Z,100548.65
2019-02-15T14:19:56.809Z,100543.40
2019-02-15T14:22:26.392Z,100542.59
2019-02-15T14:24:58.172Z,100535.30
2019-02-15T14:27:32.658Z,100534.66
2019-02-15T14:30:04.442Z,100532.77
2019-02-15T14:32:35.390Z,100530.45
2019-02-15T14:35:04.970Z,100519.42
2019-02-15T14:37:39.771Z,100517.90
2019-02-15T14:40:13.544Z,100525.28
2019-02-15T14:42:43.575Z,100522.22
2019-02-15T14:45:13.724Z,100523.34
2019-02-15T14:47:53.947Z,100522.16
2019-02-15T14:50:19.782Z,100517.86
2019-02-15T14:52:50.098Z,100512.21
2019-02-15T14:55:21.630Z,100518.00
2019-02-15T14:57:51.082Z,100517.92
2019-02-15T15:00:20.387Z,100513.34
2019-02-15T15:02:49.836Z,100505.56
2019-02-15T15:05:26.673Z,100504.72
2019-02-15T15:08:00.123Z,100503.49
2019-02-15T15:10:31.698Z,100499.06
2019-02-15T15:13:01.338Z,100496.58
2019-02-15T15:15:31.123Z,100494.52
2019-02-15T15:18:12.449Z,100490.55
2019-02-15T15:20:33.434Z,100491.05
2019-02-15T15:23:08.034Z,100481.02
2019-02-15T15:25:42.635Z,100482.68
2019-02-15T15:28:13.174Z,100471.96
2019-02-15T15:30:42.409Z,100467.46
2019-02-15T15:33:12.581Z,100466.70
2019-02-15T15:35:45.171Z,100464.88
2019-02-15T15:38:19.476Z,100461.06
2019-02-15T15:40:50.274Z,100465.17
2019-02-15T15:43:21.362Z,100453.46
2019-02-15T15:48:45.116Z,100450.64
2019-02-15T15:51:34.803Z,100451.70
2019-02-15T15:54:08.741Z,100444.90
2019-02-15T15:56:38.312Z,100445.87
2019-02-15T15:59:08.079Z,100443.39
2019-02-15T16:01:37.318Z,100440.52
2019-02-15T16:04:06.772Z,100436.44
2019-02-15T16:06:36.233Z,100441.95
2019-02-15T16:09:21.872Z,100440.60
2019-02-15T16:11:53.816Z,100444.91
2019-02-15T16:14:26.652Z,100441.38
2019-02-15T16:16:56.538Z,100439.72
2019-02-15T16:19:27.928Z,100436.83
2019-02-15T16:22:00.513Z,100439.22
2019-02-15T16:24:29.840Z,100442.43
2019-02-15T16:26:59.101Z,100438.06
2019-02-15T16:29:28.342Z,100438.44
2019-02-15T16:32:00.662Z,100435.75
2019-02-15T16:34:30.164Z,100440.42
2019-02-15T16:36:59.362Z,100436.70
2019-02-15T16:39:29.002Z,100438.51
2019-02-15T16:42:01.673Z,100436.44
2019-02-15T16:44:31.574Z,100440.20
2019-02-15T16:47:01.803Z,100445.13
2019-02-15T16:49:31.302Z,100448.52
2019-02-15T16:52:03.786Z,100454.72
2019-02-15T16:54:33.804Z,100450.56
2019-02-15T16:57:06.974Z,100451.81
2019-02-15T16:59:40.414Z,100448.67
2019-02-15T17:02:10.215Z,100454.35
2019-02-15T17:04:42.055Z,100449.00
2019-02-15T17:07:14.783Z,100456.56
2019-02-15T17:09:44.324Z,100454.68
2019-02-15T17:12:14.543Z,100453.14
2019-02-15T17:14:43.792Z,100448.91
2019-02-15T17:17:14.248Z,100452.39
2019-02-15T17:19:44.972Z,100450.27
2019-02-15T17:22:16.999Z,100448.39
2019-02-15T17:24:47.018Z,100442.14
2019-02-15T17:27:20.180Z,100442.52
2019-02-15T17:29:50.305Z,100440.55
2019-02-15T17:32:20.202Z,100435.97
2019-02-15T17:34:49.764Z,100440.92
2019-02-15T17:37:20.963Z,100438.73
2019-02-15T17:39:50.216Z,100441.69
2019-02-15T17:42:34.214Z,100442.77
2019-02-15T17:45:03.427Z,100442.08
2019-02-15T17:47:32.894Z,100439.60
2019-02-15T17:50:04.731Z,100438.50
2019-02-15T17:52:33.945Z,100437.25
2019-02-15T17:55:09.936Z,100438.34
2019-02-15T17:57:39.570Z,100434.31
2019-02-15T18:00:09.604Z,100439.30
2019-02-15T18:02:39.161Z,100434.22
2019-02-15T18:05:16.547Z,100432.70
2019-02-15T18:07:46.750Z,100440.61
2019-02-15T18:10:15.922Z,100434.00
2019-02-15T18:12:46.895Z,100429.13
2019-02-15T18:15:16.351Z,100432.11
2019-02-15T18:17:45.559Z,100433.13
2019-02-15T18:20:14.731Z,100433.87
2019-02-15T18:22:43.962Z,100433.05
2019-02-15T18:25:13.959Z,100429.75
2019-02-15T18:27:43.158Z,100433.07
2019-02-15T18:30:12.438Z,100431.00
2019-02-15T18:32:41.636Z,100430.55
2019-02-15T18:35:10.810Z,100432.73
2019-02-15T18:37:40.031Z,100427.17
2019-02-15T18:40:10.387Z,100426.22
2019-02-15T18:42:39.668Z,100429.59
2019-02-15T18:45:11.811Z,100427.43
2019-02-15T18:47:42.094Z,100424.67
2019-02-15T18:50:32.552Z,100428.31
2019-02-15T18:53:02.851Z,100423.66
2019-02-15T18:55:32.243Z,100427.92
2019-02-15T18:58:01.989Z,100420.44
2019-02-15T19:00:31.792Z,100410.39
2019-02-15T19:03:05.022Z,100412.75
2019-02-15T19:05:34.997Z,100416.92
2019-02-15T19:08:04.234Z,100418.41
2019-02-15T19:10:34.997Z,100415.17
2019-02-15T19:13:04.478Z,100411.27
2019-02-15T19:15:37.796Z,100414.94
2019-02-15T19:18:07.731Z,100413.13
2019-02-15T19:20:38.582Z,100414.64
2019-02-15T19:23:08.424Z,100409.16
2019-02-15T19:25:38.254Z,100413.09
2019-02-15T19:28:07.687Z,100413.09
2019-02-15T19:30:37.507Z,100420.08
2019-02-15T19:33:14.621Z,100415.45
2019-02-15T19:35:43.842Z,100418.69
2019-02-15T19:38:13.397Z,100415.66
2019-02-15T19:40:42.691Z,100412.36
2019-02-15T19:43:11.945Z,100408.94
2019-02-15T19:45:41.453Z,100403.64
2019-02-15T19:48:12.391Z,100403.23
2019-02-15T19:50:43.436Z,100397.62
2019-02-15T19:53:14.303Z,100397.59
2019-02-15T19:55:43.906Z,100396.84
2019-02-15T19:58:23.116Z,100399.54
2019-02-15T20:00:54.645Z,100399.72
2019-02-15T20:03:24.755Z,100395.20
2019-02-15T20:05:57.046Z,100395.77
2019-02-15T20:08:26.609Z,100396.34
2019-02-15T20:10:57.108Z,100393.77
2019-02-15T20:13:30.259Z,100395.20
2019-02-15T20:16:02.910Z,100389.47
2019-02-15T20:18:35.304Z,100384.25
2019-02-15T20:21:07.879Z,100378.63
2019-02-15T20:23:37.211Z,100384.30
2019-02-15T20:26:09.432Z,100377.11
2019-02-15T20:28:41.946Z,100380.42
2019-02-15T20:31:11.778Z,100379.17
2019-02-15T20:33:41.666Z,100381.48
2019-02-15T20:36:12.930Z,100379.78
2019-02-15T20:38:51.787Z,100374.40
2019-02-15T20:41:21.476Z,100375.83
2019-02-15T20:43:51.226Z,100379.21
2019-02-15T20:46:24.249Z,100375.27
2019-02-15T20:49:04.031Z,100373.52
2019-02-15T20:51:28.579Z,100373.16
2019-02-15T20:54:00.619Z,100365.59
2019-02-15T20:56:30.405Z,100361.95
2019-02-15T20:59:02.472Z,100362.95
2019-02-15T21:01:34.824Z,100363.00
2019-02-15T21:04:06.331Z,100361.28
2019-02-15T21:06:36.485Z,100361.58
2019-02-15T21:09:09.981Z,100366.20
2019-02-15T21:11:39.886Z,100366.05
2019-02-15T21:14:13.289Z,100367.03
2019-02-15T21:16:43.815Z,100365.23
2019-02-15T21:19:16.165Z,100357.44
2019-02-15T21:21:51.868Z,100356.97
2019-02-15T21:24:21.727Z,100364.41
2019-02-15T21:26:54.417Z,100368.41
2019-02-15T21:29:25.503Z,100367.66
2019-02-15T21:31:55.819Z,100366.53
2019-02-15T21:34:25.810Z,100364.62
2019-02-15T21:36:58.547Z,100361.94
2019-02-15T21:39:28.421Z,100366.23
2019-02-15T21:41:59.925Z,100364.16
2019-02-15T21:44:29.474Z,100360.78
2019-02-15T21:47:01.043Z,100363.50
2019-02-15T21:49:32.526Z,100363.86
2019-02-15T21:52:04.921Z,100363.80
2019-02-15T21:54:34.429Z,100356.77
2019-02-15T21:57:05.699Z,100359.34
2019-02-15T21:59:36.428Z,100359.96
2019-02-15T22:02:07.997Z,100362.59
2019-02-15T22:04:51.535Z,100355.56
2019-02-15T22:07:22.711Z,100351.76
2019-02-15T22:09:53.366Z,100351.34
2019-02-15T22:12:27.886Z,100344.62
2019-02-15T22:14:58.931Z,100348.47
2019-02-15T22:17:30.840Z,100348.97
2019-02-15T22:20:00.572Z,100349.41
2019-02-15T22:22:34.227Z,100346.98
2019-02-15T22:25:07.199Z,100348.75
2019-02-15T22:27:36.721Z,100344.72
2019-02-15T22:30:06.998Z,100341.02
2019-02-15T22:32:36.262Z,100344.77
2019-02-15T22:35:05.643Z,100338.50
2019-02-15T22:37:35.239Z,100335.92
2019-02-15T22:40:29.185Z,100340.69
2019-02-15T22:43:17.320Z,100335.61
2019-02-15T22:45:47.508Z,100345.18
2019-02-15T22:48:16.858Z,100344.66
2019-02-15T22:50:46.091Z,100336.09
2019-02-15T22:53:16.319Z,100340.45
2019-02-15T22:55:45.549Z,100339.04
2019-02-15T22:58:15.297Z,100340.49
2019-02-15T23:01:11.964Z,100336.05
2019-02-15T23:03:41.140Z,100330.56
2019-02-15T23:06:10.394Z,100327.58
2019-02-15T23:08:41.685Z,100329.42
2019-02-15T23:11:10.883Z,100324.87
2019-02-15T23:13:40.803Z,100324.34
2019-02-15T23:16:10.795Z,100319.92
2019-02-15T23:18:43.978Z,100322.42
2019-02-15T23:21:13.502Z,100322.84
2019-02-15T23:23:43.783Z,100323.49
2019-02-15T23:26:15.361Z,100317.91
2019-02-15T23:28:44.557Z,100318.04
2019-02-15T23:31:19.126Z,100315.83
2019-02-15T23:33:49.424Z,100311.34
2019-02-15T23:36:22.695Z,100315.98
2019-02-15T23:38:52.197Z,100316.40
2019-02-15T23:41:21.681Z,100314.34
2019-02-15T23:43:51.216Z,100308.27
2019-02-15T23:46:21.484Z,100317.12
2019-02-15T23:48:50.985Z,100316.16
2019-02-15T23:51:23.241Z,100310.17
2019-02-15T23:53:53.236Z,100314.18
2019-02-15T23:56:23.563Z,100304.29
2019-02-15T23:58:53.789Z,100298.67
